Flinterduin — PEBT — position and weather

sailwx.info

Track history (hours):
 
Tides and Currents Weather Stations Pressure Air Temp Water Temp Dewpoint Dewpoint Depression Visibility Wind Speed Wind Dir Waves Ship Positions

Flinterduin

Last reported at 2016-Jul-30 12:00 UTC. Time now 2016-Jul-30 16:54 UTC.
Position N 36°12' E 016°24'.

Length 112 m; beam 15 m.

Type: Cargo ship. MMSI: 246484000.

Wind from 999 at 2 knots

Barometer 1015.7 mb
Air temperature 30.5 ° C
Visibility: greater than 5.4 NM
Dewpoint 24.4 ° C

Date/timePositionNaut miles runAvg speedWind from/ knotsBaromVisibWave heightAir tempDewpointWater temp
2016-Jul-30 12:00N 36°12' E 016°24'5 6.3 999 / 21015.7 5.4 30.524.4
2016-Jul-30 11:09N 36°17' E 016°24'3712.0
2016-Jul-30 08:06N 36°25' E 015°40'712.1
2016-Jul-30 07:33N 36°26' E 015°32'1212.1
2016-Jul-30 06:33N 36°29' E 015°17'1212.2
2016-Jul-30 05:33N 36°32' E 015°02'1211.9
2016-Jul-30 04:33N 36°35' E 014°48'1212.1
2016-Jul-30 03:33N 36°38' E 014°33'1212.1
2016-Jul-30 02:33N 36°41' E 014°19'1212.5
2016-Jul-30 01:33N 36°44' E 014°04'1313.0
2016-Jul-30 00:33N 36°47' E 013°48'1413.6
2016-Jul-29 23:33N 36°50' E 013°31'1413.5
2016-Jul-29 22:33N 36°54' E 013°15'1312.7
2016-Jul-29 21:33N 36°57' E 012°60'1312.6
2016-Jul-29 20:33N 36°60' E 012°44'1312.8
2016-Jul-29 19:33N 37°03' E 012°29'1312.4
2016-Jul-29 18:32N 37°06' E 012°13'1119.8
2016-Jul-29 18:00N 37°06' E 012°00'4 8.3 330 / 61015.3 5.4 0.527.923.9
2016-Jul-29 17:33N 37°10' E 011°59'1212.2
2016-Jul-29 16:33N 37°13' E 011°44'1212.6
2016-Jul-29 15:33N 37°16' E 011°29'1312.6
2016-Jul-29 14:33N 37°21' E 011°14'1212.3
2016-Jul-29 13:34N 37°25' E 010°59'1312.4
2016-Jul-29 12:29N 37°28' E 010°43'1121.7
2016-Jul-29 12:00N 37°30' E 010°30'1 3.1 330 / 71017.3 5.4 1.030.122.9
2016-Jul-29 11:33N 37°31' E 010°28'1312.9
2016-Jul-29 10:33N 37°33' E 010°13'1312.6
2016-Jul-29 09:33N 37°32' E 009°57'2612.9
2016-Jul-29 07:32N 37°26' E 009°25'4113.2
2016-Jul-29 04:27N 37°16' E 008°35'13312.7
2016-Jul-28 18:00N 37°18' E 005°48'5411.5 080 / 71017.1 5.4 0.526.521.9
2016-Jul-28 13:17N 37°13' E 004°40'911.9
2016-Jul-28 12:33N 37°13' E 004°29'2035.2
2016-Jul-28 12:00N 37°06' E 004°06'920.2 080 / 71017.8 5.4 1.028.123.1
2016-Jul-28 11:33N 37°12' E 004°14'3912.0
2016-Jul-28 08:19N 37°07' E 003°26'1112.4
2016-Jul-28 07:24N 37°05' E 003°12'1011.6
2016-Jul-28 06:33N 37°04' E 002°60'1017.9
2016-Jul-28 06:00N 37°00' E 002°48'3 7.0 080 / 101015.3 5.4 1.026.022.5
2016-Jul-28 05:33N 37°02' E 002°45'1211.7
2016-Jul-28 04:33N 36°60' E 002°30'1211.6
2016-Jul-28 03:33N 36°58' E 002°16'1212.0
2016-Jul-28 02:33N 36°56' E 002°01'1312.5
2016-Jul-28 01:33N 36°54' E 001°46'1212.3
2016-Jul-28 00:33N 36°52' E 001°31'1211.8
2016-Jul-27 23:33N 36°50' E 001°16'1211.9
2016-Jul-27 22:33N 36°48' E 001°02'1211.6
2016-Jul-27 21:33N 36°46' E 000°47'1111.5
2016-Jul-27 20:33N 36°44' E 000°33'1111.4
2016-Jul-27 19:33N 36°42' E 000°20'1211.8
2016-Jul-27 18:33N 36°40' E 000°05'610.1
2016-Jul-27 18:00N 36°36' E 000°00'818.6 080 / 71014.3 5.4 0.526.822.9
2016-Jul-27 17:33N 36°38' W 000°10'1212.1
2016-Jul-27 16:33N 36°37' W 000°25'1312.5
2016-Jul-27 15:33N 36°35' W 000°40'4613.0
2016-Jul-27 12:00N 36°24' W 001°36'6911.5 030 / 71016.8 5.4 27.122.9
2016-Jul-27 06:00N 36°12' W 003°00'10912.8 270 / 41016.3 5.4 24.022.6
2016-Jul-26 21:30N 35°56' W 005°13'5 4.8
2016-Jul-26 20:32N 35°54' W 005°18'0 0.0
2016-Jul-26 19:32N 35°54' W 005°18'0 0.0
2016-Jul-26 18:32N 35°54' W 005°18'0 0.0
2016-Jul-26 17:32N 35°54' W 005°18'0 0.0
2016-Jul-26 16:32N 35°54' W 005°18'0 0.0
2016-Jul-26 15:32N 35°54' W 005°18'0 0.0
2016-Jul-26 14:29N 35°54' W 005°18'0 0.0
2016-Jul-26 13:34N 35°54' W 005°18'2 1.8
2016-Jul-26 12:33N 35°55' W 005°19'7211.0
2016-Jul-26 06:00N 36°00' W 006°48'8411.3 090 / 111015.3 5.4 1.022.020.6
2016-Jul-25 22:33N 36°23' W 008°28'2511.4
2016-Jul-25 20:22N 36°29' W 008°58'911.2
2016-Jul-25 19:33N 36°32' W 009°09'1110.7
2016-Jul-25 18:33N 36°37' W 009°21'3 4.5
2016-Jul-25 18:00N 36°36' W 009°24'1022.3 010 / 111016.8 5.4 1.022.219.7
2016-Jul-25 17:33N 36°45' W 009°30'1111.3
2016-Jul-25 16:33N 36°55' W 009°35'1111.2
2016-Jul-25 15:34N 37°06' W 009°38'1111.3
2016-Jul-25 14:33N 37°17' W 009°41'1312.7
2016-Jul-25 13:33N 37°30' W 009°45'1312.5
2016-Jul-25 12:33N 37°42' W 009°48'1221.9
2016-Jul-25 12:00N 37°54' W 009°48'3 7.3 360 / 111017.8 5.4 1.521.818.4
2016-Jul-25 11:33N 37°54' W 009°52'1312.7
2016-Jul-25 10:33N 38°06' W 009°56'1312.9
2016-Jul-25 09:34N 38°19' W 009°60'1312.9
2016-Jul-25 08:33N 38°31' W 010°04'1312.5
2016-Jul-25 07:33N 38°44' W 010°07'1412.8
2016-Jul-25 06:28N 38°58' W 010°06'2 5.2
2016-Jul-25 06:00N 39°00' W 010°06'920.1 360 / 171016.3 5.4 1.519.218.1
2016-Jul-25 05:33N 39°09' W 010°06'1312.8
2016-Jul-25 04:33N 39°22' W 010°06'12812.2
2016-Jul-24 18:00N 41°30' W 010°06'9015.0 360 / 221018.3 5.4 1.518.517.0
2016-Jul-24 12:00N 43°00' W 010°06'6510.9 360 / 61023.2 5.4 0.521.318.1
2016-Jul-24 06:00N 44°00' W 009°30'15012.5 360 / 61023.4 2.2 0.519.017.5
2016-Jul-23 18:00N 46°12' W 007°48'7412.3 310 / 61024.3 5.4 0.521.018.0
2016-Jul-23 12:00N 47°18' W 007°00'4311.7 270 / 41024.6 5.4 19.117.1
2016-Jul-23 08:20N 47°57' W 006°32'912.2
2016-Jul-23 07:34N 48°05' W 006°26'1610.2
2016-Jul-23 06:00N 48°18' W 006°12'1711.8 270 / 41022.4 5.4 18.513.6
2016-Jul-23 04:33N 48°34' W 006°04'1210.3
2016-Jul-23 03:26N 48°44' W 005°56'1111.2
2016-Jul-23 02:29N 48°54' W 005°48'9911.6
2016-Jul-22 18:00N 49°42' W 003°36'613.4 230 / 31020.3 5.4 20.016.9
2016-Jul-22 17:34N 49°46' W 003°29'1212.3
2016-Jul-22 16:33N 49°52' W 003°12'1413.8
2016-Jul-22 15:33N 49°58' W 002°53'1514.7
2016-Jul-22 14:33N 50°03' W 002°31'1414.4
2016-Jul-22 13:34N 50°07' W 002°10'1312.8
2016-Jul-22 12:34N 50°11' W 001°51'1110.9
2016-Jul-22 11:33N 50°13' W 001°35'9 9.5
2016-Jul-22 10:34N 50°16' W 001°20'9 8.7
2016-Jul-22 09:33N 50°19' W 001°07'9 8.7
2016-Jul-22 08:33N 50°21' W 000°54'3212.5
2016-Jul-22 06:00N 50°30' W 000°06'4 8.7 999 / 11017.3 5.4 18.015.6
2016-Jul-22 05:33N 50°32' W 000°01'1413.7
2016-Jul-22 04:33N 50°35' E 000°20'3711.9
2016-Jul-22 01:24N 50°55' E 001°10'8 9.7
2016-Jul-22 00:33N 51°01' E 001°20'1010.1
2016-Jul-21 23:33N 51°07' E 001°32'1212.1
2016-Jul-21 22:33N 51°19' E 001°38'1111.3
2016-Jul-21 21:34N 51°27' E 001°26'1010.4
2016-Jul-21 20:34N 51°29' E 001°10'1111.3
2016-Jul-21 19:34N 51°29' E 000°52'1312.5
2016-Jul-21 18:33N 51°30' E 000°32'7 7.4
2016-Jul-21 17:33N 51°27' E 000°21'0 0.3
2016-Jul-21 16:34N 51°27' E 000°21'0 0.0
2016-Jul-21 15:33N 51°27' E 000°21'0 0.0
2016-Jul-21 14:34N 51°27' E 000°21'0 0.0
2016-Jul-21 13:33N 51°27' E 000°21'0 0.0
2016-Jul-21 12:33N 51°27' E 000°21'0 0.0
2016-Jul-21 11:34N 51°27' E 000°21'0 0.0
2016-Jul-21 10:34N 51°27' E 000°21'0 0.0
2016-Jul-21 09:33N 51°27' E 000°21'0 0.0
2016-Jul-21 08:34N 51°27' E 000°21'0 0.0
2016-Jul-21 07:34N 51°27' E 000°21'0 0.0
2016-Jul-21 06:34N 51°27' E 000°21'0 0.0
2016-Jul-21 05:34N 51°27' E 000°21'0 0.0
2016-Jul-21 04:32N 51°27' E 000°21'0 0.0
2016-Jul-21 03:34N 51°27' E 000°21'0 0.0
2016-Jul-21 02:34N 51°27' E 000°21'0 0.0
2016-Jul-21 01:34N 51°27' E 000°21'0 0.0
2016-Jul-21 00:34N 51°27' E 000°21'0 0.0
2016-Jul-20 23:34N 51°27' E 000°21'0 0.0
2016-Jul-20 22:34N 51°27' E 000°21'0 0.0
2016-Jul-20 21:34N 51°27' E 000°21'0 0.0
2016-Jul-20 20:33N 51°27' E 000°21'0 0.0
2016-Jul-20 19:33N 51°27' E 000°21'0 0.0
2016-Jul-20 18:34N 51°27' E 000°21'0 0.0
2016-Jul-20 17:34N 51°27' E 000°21'0 0.0
2016-Jul-20 16:34N 51°27' E 000°21'0 0.0
2016-Jul-20 15:34N 51°27' E 000°21'0 0.0
2016-Jul-20 14:33N 51°27' E 000°21'0 0.0
2016-Jul-20 13:34N 51°27' E 000°21'0 0.0
2016-Jul-20 12:33N 51°27' E 000°21'  
Track history (hours):
 
Tides and Currents Weather Stations Pressure Air Temp Water Temp Dewpoint Dewpoint Depression Visibility Wind Speed Wind Dir Waves Ship Positions

Flinterduin

Last reported at 2016-Jul-30 12:00 UTC. Time now 2016-Jul-30 16:54 UTC.
Position N 36°12' E 016°24'.

Length 112 m; beam 15 m.

Type: Cargo ship. MMSI: 246484000.

Wind from 999 at 2 knots

Barometer 1015.7 mb
Air temperature 30.5 ° C
Visibility: greater than 5.4 NM
Dewpoint 24.4 ° C

Date/timePositionNaut miles runAvg speedWind from/ knotsBaromVisibWave heightAir tempDewpointWater temp
2016-Jul-30 12:00N 36°12' E 016°24'5 6.3 999 / 21015.7 5.4 30.524.4
2016-Jul-30 11:09N 36°17' E 016°24'3712.0
2016-Jul-30 08:06N 36°25' E 015°40'712.1
2016-Jul-30 07:33N 36°26' E 015°32'1212.1
2016-Jul-30 06:33N 36°29' E 015°17'1212.2
2016-Jul-30 05:33N 36°32' E 015°02'1211.9
2016-Jul-30 04:33N 36°35' E 014°48'1212.1
2016-Jul-30 03:33N 36°38' E 014°33'1212.1
2016-Jul-30 02:33N 36°41' E 014°19'1212.5
2016-Jul-30 01:33N 36°44' E 014°04'1313.0
2016-Jul-30 00:33N 36°47' E 013°48'1413.6
2016-Jul-29 23:33N 36°50' E 013°31'1413.5
2016-Jul-29 22:33N 36°54' E 013°15'1312.7
2016-Jul-29 21:33N 36°57' E 012°60'1312.6
2016-Jul-29 20:33N 36°60' E 012°44'1312.8
2016-Jul-29 19:33N 37°03' E 012°29'1312.4
2016-Jul-29 18:32N 37°06' E 012°13'1119.8
2016-Jul-29 18:00N 37°06' E 012°00'4 8.3 330 / 61015.3 5.4 0.527.923.9
2016-Jul-29 17:33N 37°10' E 011°59'1212.2
2016-Jul-29 16:33N 37°13' E 011°44'1212.6
2016-Jul-29 15:33N 37°16' E 011°29'1312.6
2016-Jul-29 14:33N 37°21' E 011°14'1212.3
2016-Jul-29 13:34N 37°25' E 010°59'1312.4
2016-Jul-29 12:29N 37°28' E 010°43'1121.7
2016-Jul-29 12:00N 37°30' E 010°30'1 3.1 330 / 71017.3 5.4 1.030.122.9
2016-Jul-29 11:33N 37°31' E 010°28'1312.9
2016-Jul-29 10:33N 37°33' E 010°13'1312.6
2016-Jul-29 09:33N 37°32' E 009°57'2612.9
2016-Jul-29 07:32N 37°26' E 009°25'4113.2
2016-Jul-29 04:27N 37°16' E 008°35'13312.7
2016-Jul-28 18:00N 37°18' E 005°48'5411.5 080 / 71017.1 5.4 0.526.521.9
2016-Jul-28 13:17N 37°13' E 004°40'911.9
2016-Jul-28 12:33N 37°13' E 004°29'2035.2
2016-Jul-28 12:00N 37°06' E 004°06'920.2 080 / 71017.8 5.4 1.028.123.1
2016-Jul-28 11:33N 37°12' E 004°14'3912.0
2016-Jul-28 08:19N 37°07' E 003°26'1112.4
2016-Jul-28 07:24N 37°05' E 003°12'1011.6
2016-Jul-28 06:33N 37°04' E 002°60'1017.9
2016-Jul-28 06:00N 37°00' E 002°48'3 7.0 080 / 101015.3 5.4 1.026.022.5
2016-Jul-28 05:33N 37°02' E 002°45'1211.7
2016-Jul-28 04:33N 36°60' E 002°30'1211.6
2016-Jul-28 03:33N 36°58' E 002°16'1212.0
2016-Jul-28 02:33N 36°56' E 002°01'1312.5
2016-Jul-28 01:33N 36°54' E 001°46'1212.3
2016-Jul-28 00:33N 36°52' E 001°31'1211.8
2016-Jul-27 23:33N 36°50' E 001°16'1211.9
2016-Jul-27 22:33N 36°48' E 001°02'1211.6
2016-Jul-27 21:33N 36°46' E 000°47'1111.5
2016-Jul-27 20:33N 36°44' E 000°33'1111.4
2016-Jul-27 19:33N 36°42' E 000°20'1211.8
2016-Jul-27 18:33N 36°40' E 000°05'610.1
2016-Jul-27 18:00N 36°36' E 000°00'818.6 080 / 71014.3 5.4 0.526.822.9
2016-Jul-27 17:33N 36°38' W 000°10'1212.1
2016-Jul-27 16:33N 36°37' W 000°25'1312.5
2016-Jul-27 15:33N 36°35' W 000°40'4613.0
2016-Jul-27 12:00N 36°24' W 001°36'6911.5 030 / 71016.8 5.4 27.122.9
2016-Jul-27 06:00N 36°12' W 003°00'10912.8 270 / 41016.3 5.4 24.022.6
2016-Jul-26 21:30N 35°56' W 005°13'5 4.8
2016-Jul-26 20:32N 35°54' W 005°18'0 0.0
2016-Jul-26 19:32N 35°54' W 005°18'0 0.0
2016-Jul-26 18:32N 35°54' W 005°18'0 0.0
2016-Jul-26 17:32N 35°54' W 005°18'0 0.0
2016-Jul-26 16:32N 35°54' W 005°18'0 0.0
2016-Jul-26 15:32N 35°54' W 005°18'0 0.0
2016-Jul-26 14:29N 35°54' W 005°18'0 0.0
2016-Jul-26 13:34N 35°54' W 005°18'2 1.8
2016-Jul-26 12:33N 35°55' W 005°19'7211.0
2016-Jul-26 06:00N 36°00' W 006°48'8411.3 090 / 111015.3 5.4 1.022.020.6
2016-Jul-25 22:33N 36°23' W 008°28'2511.4
2016-Jul-25 20:22N 36°29' W 008°58'911.2
2016-Jul-25 19:33N 36°32' W 009°09'1110.7
2016-Jul-25 18:33N 36°37' W 009°21'3 4.5
2016-Jul-25 18:00N 36°36' W 009°24'1022.3 010 / 111016.8 5.4 1.022.219.7
2016-Jul-25 17:33N 36°45' W 009°30'1111.3
2016-Jul-25 16:33N 36°55' W 009°35'1111.2
2016-Jul-25 15:34N 37°06' W 009°38'1111.3
2016-Jul-25 14:33N 37°17' W 009°41'1312.7
2016-Jul-25 13:33N 37°30' W 009°45'1312.5
2016-Jul-25 12:33N 37°42' W 009°48'1221.9
2016-Jul-25 12:00N 37°54' W 009°48'3 7.3 360 / 111017.8 5.4 1.521.818.4
2016-Jul-25 11:33N 37°54' W 009°52'1312.7
2016-Jul-25 10:33N 38°06' W 009°56'1312.9
2016-Jul-25 09:34N 38°19' W 009°60'1312.9
2016-Jul-25 08:33N 38°31' W 010°04'1312.5
2016-Jul-25 07:33N 38°44' W 010°07'1412.8
2016-Jul-25 06:28N 38°58' W 010°06'2 5.2
2016-Jul-25 06:00N 39°00' W 010°06'920.1 360 / 171016.3 5.4 1.519.218.1
2016-Jul-25 05:33N 39°09' W 010°06'1312.8
2016-Jul-25 04:33N 39°22' W 010°06'12812.2
2016-Jul-24 18:00N 41°30' W 010°06'9015.0 360 / 221018.3 5.4 1.518.517.0
2016-Jul-24 12:00N 43°00' W 010°06'6510.9 360 / 61023.2 5.4 0.521.318.1
2016-Jul-24 06:00N 44°00' W 009°30'15012.5 360 / 61023.4 2.2 0.519.017.5
2016-Jul-23 18:00N 46°12' W 007°48'7412.3 310 / 61024.3 5.4 0.521.018.0
2016-Jul-23 12:00N 47°18' W 007°00'4311.7 270 / 41024.6 5.4 19.117.1
2016-Jul-23 08:20N 47°57' W 006°32'912.2
2016-Jul-23 07:34N 48°05' W 006°26'1610.2
2016-Jul-23 06:00N 48°18' W 006°12'1711.8 270 / 41022.4 5.4 18.513.6
2016-Jul-23 04:33N 48°34' W 006°04'1210.3
2016-Jul-23 03:26N 48°44' W 005°56'1111.2
2016-Jul-23 02:29N 48°54' W 005°48'9911.6
2016-Jul-22 18:00N 49°42' W 003°36'613.4 230 / 31020.3 5.4 20.016.9
2016-Jul-22 17:34N 49°46' W 003°29'1212.3
2016-Jul-22 16:33N 49°52' W 003°12'1413.8
2016-Jul-22 15:33N 49°58' W 002°53'1514.7
2016-Jul-22 14:33N 50°03' W 002°31'1414.4
2016-Jul-22 13:34N 50°07' W 002°10'1312.8
2016-Jul-22 12:34N 50°11' W 001°51'1110.9
2016-Jul-22 11:33N 50°13' W 001°35'9 9.5
2016-Jul-22 10:34N 50°16' W 001°20'9 8.7
2016-Jul-22 09:33N 50°19' W 001°07'9 8.7
2016-Jul-22 08:33N 50°21' W 000°54'3212.5
2016-Jul-22 06:00N 50°30' W 000°06'4 8.7 999 / 11017.3 5.4 18.015.6
2016-Jul-22 05:33N 50°32' W 000°01'1413.7
2016-Jul-22 04:33N 50°35' E 000°20'3711.9
2016-Jul-22 01:24N 50°55' E 001°10'8 9.7
2016-Jul-22 00:33N 51°01' E 001°20'1010.1
2016-Jul-21 23:33N 51°07' E 001°32'1212.1
2016-Jul-21 22:33N 51°19' E 001°38'1111.3
2016-Jul-21 21:34N 51°27' E 001°26'1010.4
2016-Jul-21 20:34N 51°29' E 001°10'1111.3
2016-Jul-21 19:34N 51°29' E 000°52'1312.5
2016-Jul-21 18:33N 51°30' E 000°32'7 7.4
2016-Jul-21 17:33N 51°27' E 000°21'0 0.3
2016-Jul-21 16:34N 51°27' E 000°21'0 0.0
2016-Jul-21 15:33N 51°27' E 000°21'0 0.0
2016-Jul-21 14:34N 51°27' E 000°21'0 0.0
2016-Jul-21 13:33N 51°27' E 000°21'0 0.0
2016-Jul-21 12:33N 51°27' E 000°21'0 0.0
2016-Jul-21 11:34N 51°27' E 000°21'0 0.0
2016-Jul-21 10:34N 51°27' E 000°21'0 0.0
2016-Jul-21 09:33N 51°27' E 000°21'0 0.0
2016-Jul-21 08:34N 51°27' E 000°21'0 0.0
2016-Jul-21 07:34N 51°27' E 000°21'0 0.0
2016-Jul-21 06:34N 51°27' E 000°21'0 0.0
2016-Jul-21 05:34N 51°27' E 000°21'0 0.0
2016-Jul-21 04:32N 51°27' E 000°21'0 0.0
2016-Jul-21 03:34N 51°27' E 000°21'0 0.0
2016-Jul-21 02:34N 51°27' E 000°21'0 0.0
2016-Jul-21 01:34N 51°27' E 000°21'0 0.0
2016-Jul-21 00:34N 51°27' E 000°21'0 0.0
2016-Jul-20 23:34N 51°27' E 000°21'0 0.0
2016-Jul-20 22:34N 51°27' E 000°21'0 0.0
2016-Jul-20 21:34N 51°27' E 000°21'0 0.0
2016-Jul-20 20:33N 51°27' E 000°21'0 0.0
2016-Jul-20 19:33N 51°27' E 000°21'0 0.0
2016-Jul-20 18:34N 51°27' E 000°21'0 0.0
2016-Jul-20 17:34N 51°27' E 000°21'0 0.0
2016-Jul-20 16:34N 51°27' E 000°21'0 0.0
2016-Jul-20 15:34N 51°27' E 000°21'0 0.0
2016-Jul-20 14:33N 51°27' E 000°21'0 0.0
2016-Jul-20 13:34N 51°27' E 000°21'0 0.0
2016-Jul-20 12:33N 51°27' E 000°21'  

Dump ship's entire track history